createdAt,value
2023-03-05T00:01:34.592Z,3.72
2023-03-05T00:04:09.663Z,3.73
2023-03-05T00:06:42.406Z,3.41
2023-03-05T00:09:14.915Z,3.45
2023-03-05T00:11:47.434Z,3.52
2023-03-05T00:14:19.799Z,3.57
2023-03-05T00:16:52.228Z,3.65
2023-03-05T00:19:24.734Z,3.72
2023-03-05T00:21:59.251Z,3.69
2023-03-05T00:24:31.702Z,3.59
2023-03-05T00:27:05.030Z,3.44
2023-03-05T00:29:37.427Z,3.44
2023-03-05T00:32:11.495Z,3.59
2023-03-05T00:34:43.967Z,3.34
2023-03-05T00:37:16.428Z,3.44
2023-03-05T00:39:49.054Z,3.51
2023-03-05T00:42:21.579Z,3.48
2023-03-05T00:44:53.974Z,3.35
2023-03-05T00:47:26.678Z,3.22
2023-03-05T00:49:59.508Z,3.22
2023-03-05T00:52:31.954Z,3.40
2023-03-05T00:55:04.783Z,3.49
2023-03-05T00:57:37.686Z,3.58
2023-03-05T01:00:13.511Z,3.60
2023-03-05T01:02:46.389Z,3.62
2023-03-05T01:05:19.249Z,3.63
2023-03-05T01:07:55.106Z,3.55
2023-03-05T01:10:29.174Z,3.57
2023-03-05T01:13:01.744Z,3.59
2023-03-05T01:15:34.693Z,3.65
2023-03-05T01:18:07.360Z,3.76
2023-03-05T01:20:39.750Z,3.76
2023-03-05T01:23:12.220Z,3.71
2023-03-05T01:25:45.360Z,3.69
2023-03-05T01:28:18.207Z,3.64
2023-03-05T01:30:50.692Z,3.58
2023-03-05T01:33:23.459Z,3.50
2023-03-05T01:35:56.138Z,3.50
2023-03-05T01:38:28.641Z,3.43
2023-03-05T01:41:01.010Z,3.36
2023-03-05T01:43:33.831Z,3.38
2023-03-05T01:46:38.168Z,3.42
2023-03-05T01:49:18.142Z,3.40
2023-03-05T01:51:57.750Z,3.39
2023-03-05T01:54:34.826Z,3.37
2023-03-05T01:57:12.277Z,3.44
2023-03-05T01:59:47.302Z,3.44
2023-03-05T02:02:22.306Z,3.52
2023-03-05T02:04:57.174Z,3.54
2023-03-05T02:07:31.130Z,3.55
2023-03-05T02:10:03.648Z,3.59
2023-03-05T02:12:36.146Z,3.54
2023-03-05T02:15:10.753Z,3.53
2023-03-05T02:17:41.724Z,3.55
2023-03-05T02:20:17.162Z,3.67
2023-03-05T02:22:49.763Z,3.69
2023-03-05T02:25:24.221Z,3.58
2023-03-05T02:28:01.210Z,3.54
2023-03-05T02:30:34.691Z,3.50
2023-03-05T02:33:07.629Z,3.49
2023-03-05T02:35:40.770Z,3.55
2023-03-05T02:38:13.936Z,3.54
2023-03-05T02:40:46.729Z,3.55
2023-03-05T02:43:19.507Z,3.51
2023-03-05T02:45:52.045Z,3.49
2023-03-05T02:48:24.598Z,3.47
2023-03-05T02:50:58.077Z,3.58
2023-03-05T02:53:31.106Z,3.67
2023-03-05T02:56:03.732Z,3.71
2023-03-05T02:58:39.337Z,3.62
2023-03-05T03:01:13.122Z,3.61
2023-03-05T03:03:45.512Z,3.72
2023-03-05T03:06:18.075Z,3.70
2023-03-05T03:08:50.479Z,3.56
2023-03-05T03:11:22.963Z,3.51
2023-03-05T03:13:55.328Z,3.53
2023-03-05T03:16:27.958Z,3.29
2023-03-05T03:19:00.891Z,3.34
2023-03-05T03:21:33.400Z,3.39
2023-03-05T03:24:06.520Z,3.35
2023-03-05T03:26:38.932Z,3.54
2023-03-05T03:29:11.404Z,3.45
2023-03-05T03:31:45.770Z,3.37
2023-03-05T03:34:19.012Z,3.58
2023-03-05T03:36:52.970Z,3.67
2023-03-05T03:39:25.794Z,3.46
2023-03-05T03:41:58.268Z,3.58
2023-03-05T03:44:30.675Z,3.56
2023-03-05T03:47:03.249Z,3.54
2023-03-05T03:49:35.665Z,3.53
2023-03-05T03:52:08.664Z,3.59
2023-03-05T03:54:41.558Z,3.71
2023-03-05T03:57:14.075Z,3.61
2023-03-05T03:59:46.518Z,3.66
2023-03-05T04:02:19.374Z,3.83
2023-03-05T04:04:51.805Z,3.90
2023-03-05T04:07:24.199Z,3.99
2023-03-05T04:09:56.836Z,3.99
2023-03-05T04:12:29.429Z,4.03
2023-03-05T04:15:01.783Z,4.06
2023-03-05T04:17:35.750Z,4.07
2023-03-05T04:20:11.106Z,4.00
2023-03-05T04:22:43.595Z,4.09
2023-03-05T04:25:16.132Z,4.10
2023-03-05T04:27:48.547Z,4.10
2023-03-05T04:30:21.085Z,4.11
2023-03-05T04:32:54.003Z,4.12
2023-03-05T04:35:26.612Z,4.13
2023-03-05T04:38:01.338Z,4.16
2023-03-05T04:40:32.129Z,4.18
2023-03-05T04:43:04.959Z,4.19
2023-03-05T04:45:40.458Z,4.18
2023-03-05T04:48:14.037Z,4.17
2023-03-05T04:50:46.483Z,4.13
2023-03-05T04:53:18.926Z,4.19
2023-03-05T04:55:55.461Z,4.18
2023-03-05T04:58:28.305Z,4.13
2023-03-05T05:01:06.164Z,4.04
2023-03-05T05:03:39.024Z,4.02
2023-03-05T05:06:13.285Z,4.06
2023-03-05T05:08:45.907Z,4.11
2023-03-05T05:11:18.546Z,4.00
2023-03-05T05:13:50.986Z,3.93
2023-03-05T05:16:23.344Z,4.08
2023-03-05T05:18:55.787Z,4.06
2023-03-05T05:21:29.760Z,4.04
2023-03-05T05:24:02.211Z,4.13
2023-03-05T05:26:34.587Z,4.00
2023-03-05T05:29:07.506Z,4.02
2023-03-05T05:31:40.030Z,3.93
2023-03-05T05:34:13.280Z,3.98
2023-03-05T05:36:45.826Z,3.87
2023-03-05T05:39:20.185Z,3.95
2023-03-05T05:41:53.050Z,4.02
2023-03-05T05:44:25.467Z,3.92
2023-03-05T05:46:58.253Z,3.84
2023-03-05T05:49:31.531Z,3.82
2023-03-05T05:52:03.919Z,3.72
2023-03-05T05:54:36.726Z,3.83
2023-03-05T05:57:09.544Z,3.98
2023-03-05T05:59:42.045Z,3.92
2023-03-05T06:02:17.241Z,3.82
2023-03-05T06:04:50.465Z,3.66
2023-03-05T06:07:22.968Z,3.56
2023-03-05T06:09:55.547Z,3.42
2023-03-05T06:12:33.215Z,3.46
2023-03-05T06:15:09.856Z,3.49
2023-03-05T06:17:42.269Z,3.62
2023-03-05T06:20:16.262Z,3.68
2023-03-05T06:22:48.704Z,3.72
2023-03-05T06:25:21.327Z,3.81
2023-03-05T06:27:53.825Z,3.95
2023-03-05T06:30:27.019Z,3.91
2023-03-05T06:33:00.591Z,4.02
2023-03-05T06:35:33.487Z,3.90
2023-03-05T06:38:06.254Z,3.95
2023-03-05T06:40:39.947Z,4.06
2023-03-05T06:43:12.689Z,3.84
2023-03-05T06:45:45.232Z,3.80
2023-03-05T06:48:17.745Z,3.85
2023-03-05T06:50:50.687Z,3.79
2023-03-05T06:53:24.497Z,3.85
2023-03-05T06:55:57.244Z,3.94
2023-03-05T06:58:31.947Z,3.71
2023-03-05T07:01:06.315Z,3.81
2023-03-05T07:03:39.444Z,3.83
2023-03-05T07:06:14.409Z,3.96
2023-03-05T07:08:47.065Z,3.95
2023-03-05T07:11:21.228Z,3.84
2023-03-05T07:13:53.719Z,3.79
2023-03-05T07:16:27.647Z,3.85
2023-03-05T07:19:02.903Z,3.78
2023-03-05T07:21:39.555Z,3.87
2023-03-05T07:24:13.694Z,3.64
2023-03-05T07:26:47.998Z,3.66
2023-03-05T07:29:21.446Z,3.46
2023-03-05T07:31:54.206Z,3.68
2023-03-05T07:34:27.301Z,3.74
2023-03-05T07:37:00.333Z,3.66
2023-03-05T07:39:32.839Z,3.63
2023-03-05T07:42:05.465Z,3.59
2023-03-05T07:44:42.634Z,3.55
2023-03-05T07:47:15.918Z,3.58
2023-03-05T07:49:48.317Z,3.58
2023-03-05T07:52:20.817Z,3.55
2023-03-05T07:54:53.398Z,3.69
2023-03-05T07:57:25.861Z,3.97
2023-03-05T07:59:58.856Z,3.86
2023-03-05T08:02:31.357Z,3.86
2023-03-05T08:05:04.812Z,3.80
2023-03-05T08:07:37.895Z,3.67
2023-03-05T08:10:12.635Z,3.96
2023-03-05T08:12:43.384Z,4.04
2023-03-05T08:15:15.985Z,3.85
2023-03-05T08:17:48.366Z,4.05
2023-03-05T08:20:21.185Z,4.07
2023-03-05T08:22:53.968Z,4.07
2023-03-05T08:25:26.347Z,4.06
2023-03-05T08:27:58.943Z,4.00
2023-03-05T08:30:31.376Z,3.88
2023-03-05T08:33:03.823Z,3.95
2023-03-05T08:35:36.334Z,3.97
2023-03-05T08:38:09.261Z,3.92
2023-03-05T08:40:43.123Z,3.91
2023-03-05T08:43:15.675Z,4.11
2023-03-05T08:45:49.681Z,4.13
2023-03-05T08:48:22.301Z,4.21
2023-03-05T08:50:55.129Z,4.17
2023-03-05T08:53:27.719Z,4.06
2023-03-05T08:56:01.036Z,4.00
2023-03-05T08:58:33.918Z,4.05
2023-03-05T09:01:07.265Z,4.05
2023-03-05T09:03:39.958Z,3.98
2023-03-05T09:06:13.746Z,4.11
2023-03-05T09:08:46.780Z,4.17
2023-03-05T09:11:19.505Z,4.16
2023-03-05T09:13:52.173Z,4.11
2023-03-05T09:16:24.661Z,4.18
2023-03-05T09:18:57.463Z,4.32
2023-03-05T09:21:29.914Z,4.24
2023-03-05T09:24:02.440Z,4.21
2023-03-05T09:26:34.943Z,4.39
2023-03-05T09:29:08.711Z,4.44
2023-03-05T09:31:41.453Z,4.40
2023-03-05T09:34:15.200Z,4.46
2023-03-05T09:36:47.758Z,4.46
2023-03-05T09:39:20.684Z,4.53
2023-03-05T09:42:20.002Z,4.60
2023-03-05T09:45:03.986Z,4.50
2023-03-05T09:47:51.694Z,4.64
2023-03-05T09:50:38.753Z,4.80
2023-03-05T09:53:26.930Z,4.78
2023-03-05T09:56:04.478Z,4.96
2023-03-05T09:58:40.614Z,4.86
2023-03-05T10:01:17.396Z,5.00
2023-03-05T10:03:58.590Z,5.10
2023-03-05T10:06:33.528Z,5.07
2023-03-05T10:09:14.837Z,5.10
2023-03-05T10:11:54.862Z,5.14
2023-03-05T10:14:31.850Z,5.30
2023-03-05T10:17:25.768Z,5.36
2023-03-05T10:20:23.916Z,5.28
2023-03-05T10:23:24.825Z,5.37
2023-03-05T10:26:05.038Z,5.36
2023-03-05T10:28:49.638Z,5.20
2023-03-05T10:31:35.653Z,5.30
2023-03-05T10:34:41.107Z,5.29
2023-03-05T10:37:29.327Z,5.38
2023-03-05T10:40:21.023Z,5.39
2023-03-05T10:43:06.287Z,5.31
2023-03-05T10:45:43.895Z,5.32
2023-03-05T10:48:24.404Z,5.31
2023-03-05T10:51:01.492Z,5.28
2023-03-05T10:53:38.168Z,5.11
2023-03-05T10:56:14.305Z,5.16
2023-03-05T10:58:47.102Z,5.01
2023-03-05T11:01:28.356Z,4.94
2023-03-05T11:04:03.706Z,5.00
2023-03-05T11:06:41.101Z,4.91
2023-03-05T11:09:24.192Z,4.87
2023-03-05T11:12:14.619Z,4.94
2023-03-05T11:15:02.893Z,4.89
2023-03-05T11:17:38.949Z,4.67
2023-03-05T11:20:34.000Z,4.74
2023-03-05T11:23:11.499Z,4.80
2023-03-05T11:25:59.491Z,4.74
2023-03-05T11:28:35.708Z,4.81
2023-03-05T11:31:22.209Z,4.76
2023-03-05T11:34:01.414Z,4.69
2023-03-05T11:36:35.988Z,4.71
2023-03-05T11:39:17.377Z,4.85
2023-03-05T11:41:53.708Z,4.88
2023-03-05T11:44:30.554Z,4.96
2023-03-05T11:47:12.384Z,5.03
2023-03-05T11:49:48.909Z,4.95
2023-03-05T11:52:27.270Z,5.05
2023-03-05T11:55:09.160Z,5.12
2023-03-05T11:57:49.996Z,5.33
2023-03-05T12:00:28.627Z,5.31
2023-03-05T12:03:05.562Z,5.39
2023-03-05T12:05:41.465Z,5.47
2023-03-05T12:08:18.120Z,5.39
2023-03-05T12:10:50.570Z,5.35
2023-03-05T12:13:29.962Z,5.14
2023-03-05T12:16:18.511Z,5.13
2023-03-05T12:19:00.112Z,4.98
2023-03-05T12:21:38.040Z,4.96
2023-03-05T12:24:43.182Z,5.04
2023-03-05T12:27:32.918Z,5.06
2023-03-05T12:30:07.059Z,5.02
2023-03-05T12:33:02.997Z,4.99
2023-03-05T12:35:38.289Z,4.98
2023-03-05T12:38:34.813Z,5.07
2023-03-05T12:41:40.541Z,5.11
2023-03-05T12:44:21.168Z,5.08
2023-03-05T12:47:20.167Z,5.05
2023-03-05T12:49:53.474Z,4.77
2023-03-05T12:52:29.662Z,4.61
2023-03-05T12:55:16.530Z,4.57
2023-03-05T12:57:54.029Z,4.36
2023-03-05T13:00:34.029Z,4.36
2023-03-05T13:03:13.712Z,4.31
2023-03-05T13:05:54.287Z,4.26
2023-03-05T13:08:30.487Z,4.29
2023-03-05T13:11:06.024Z,4.42
2023-03-05T13:13:43.848Z,4.26
2023-03-05T13:16:22.197Z,4.34
2023-03-05T13:18:57.391Z,4.41
2023-03-05T13:21:32.517Z,4.39
2023-03-05T13:24:06.164Z,4.46
2023-03-05T13:26:41.981Z,4.47
2023-03-05T13:29:16.867Z,4.48
2023-03-05T13:31:52.060Z,4.45
2023-03-05T13:34:37.399Z,4.42
2023-03-05T13:37:21.539Z,4.58
2023-03-05T13:39:56.884Z,4.59
2023-03-05T13:42:32.373Z,4.71
2023-03-05T13:45:06.443Z,4.77
2023-03-05T13:47:39.790Z,4.84
2023-03-05T13:50:28.122Z,4.89
2023-03-05T13:53:18.225Z,4.99
2023-03-05T13:55:53.026Z,5.10
2023-03-05T13:58:41.375Z,5.18
2023-03-05T14:01:19.579Z,5.24
2023-03-05T14:03:56.082Z,5.29
2023-03-05T14:06:31.106Z,5.31
2023-03-05T14:09:10.606Z,5.42
2023-03-05T14:11:43.450Z,5.46
2023-03-05T14:14:21.235Z,5.81
2023-03-05T14:16:53.792Z,5.95
2023-03-05T14:19:38.300Z,5.87
2023-03-05T14:22:35.669Z,6.07
2023-03-05T14:25:23.460Z,6.13
2023-03-05T14:27:56.097Z,6.07
2023-03-05T14:30:30.965Z,6.01
2023-03-05T14:33:04.564Z,5.89
2023-03-05T14:35:38.106Z,5.88
2023-03-05T14:38:19.498Z,5.79
2023-03-05T14:40:52.030Z,5.87
2023-03-05T14:43:24.794Z,5.74
2023-03-05T14:45:57.398Z,5.65
2023-03-05T14:48:29.800Z,5.68
2023-03-05T14:51:02.580Z,5.46
2023-03-05T14:53:42.005Z,5.45
2023-03-05T14:56:23.866Z,5.31
2023-03-05T14:58:57.552Z,5.25
2023-03-05T15:01:30.211Z,5.27
2023-03-05T15:04:02.797Z,5.29
2023-03-05T15:06:38.656Z,5.32
2023-03-05T15:09:17.733Z,5.40
2023-03-05T15:11:50.447Z,5.53
2023-03-05T15:14:22.815Z,5.62
2023-03-05T15:16:55.396Z,5.55
2023-03-05T15:19:27.879Z,5.52
2023-03-05T15:22:00.587Z,5.46
2023-03-05T15:24:33.018Z,5.41
2023-03-05T15:27:06.642Z,5.19
2023-03-05T15:29:39.190Z,5.15
2023-03-05T15:32:12.434Z,5.22
2023-03-05T15:34:45.122Z,5.17
2023-03-05T15:37:17.634Z,5.06
2023-03-05T15:39:50.009Z,5.08
2023-03-05T15:42:23.122Z,5.02
2023-03-05T15:44:55.518Z,4.90
2023-03-05T15:47:28.136Z,4.92
2023-03-05T15:50:00.956Z,4.97
2023-03-05T15:52:33.598Z,5.23
2023-03-05T15:55:07.024Z,5.44
2023-03-05T15:57:46.425Z,5.41
2023-03-05T16:00:22.625Z,5.42
2023-03-05T16:02:57.592Z,5.42
2023-03-05T16:05:31.110Z,5.52
2023-03-05T16:08:04.352Z,5.51
2023-03-05T16:10:39.717Z,5.53
2023-03-05T16:13:17.182Z,5.31
2023-03-05T16:15:53.228Z,5.43
2023-03-05T16:18:26.838Z,5.39
2023-03-05T16:20:59.736Z,5.41
2023-03-05T16:23:32.215Z,5.50
2023-03-05T16:26:05.043Z,5.42
2023-03-05T16:28:38.700Z,5.30
2023-03-05T16:31:11.603Z,5.26
2023-03-05T16:33:44.335Z,5.25
2023-03-05T16:36:25.258Z,5.23
2023-03-05T16:39:00.349Z,5.36
2023-03-05T16:41:33.499Z,5.33
2023-03-05T16:44:07.522Z,5.28
2023-03-05T16:46:42.473Z,5.37
2023-03-05T16:49:16.075Z,5.34
2023-03-05T16:51:49.295Z,5.27
2023-03-05T16:54:23.063Z,5.23
2023-03-05T16:57:00.860Z,5.05
2023-03-05T16:59:34.589Z,5.06
2023-03-05T17:02:08.045Z,4.87
2023-03-05T17:04:41.185Z,4.83
2023-03-05T17:07:14.519Z,4.80
2023-03-05T17:09:48.147Z,4.70
2023-03-05T17:12:21.335Z,4.59
2023-03-05T17:14:54.053Z,4.52
2023-03-05T17:17:26.535Z,4.44
2023-03-05T17:20:00.107Z,4.30
2023-03-05T17:22:32.702Z,4.29
2023-03-05T17:25:05.940Z,4.39
2023-03-05T17:27:38.905Z,4.35
2023-03-05T17:30:15.055Z,4.33
2023-03-05T17:32:47.776Z,4.35
2023-03-05T17:35:23.840Z,4.34
2023-03-05T17:37:56.864Z,4.46
2023-03-05T17:40:29.698Z,4.48
2023-03-05T17:43:02.298Z,4.52
2023-03-05T17:45:35.526Z,4.56
2023-03-05T17:48:09.144Z,4.50
2023-03-05T17:50:42.211Z,4.52
2023-03-05T17:53:15.120Z,4.51
2023-03-05T17:55:47.755Z,4.55
2023-03-05T17:58:21.129Z,4.54
2023-03-05T18:00:54.306Z,4.44
2023-03-05T18:03:26.864Z,4.56
2023-03-05T18:05:59.799Z,4.54
2023-03-05T18:08:32.236Z,4.37
2023-03-05T18:11:04.947Z,4.43
2023-03-05T18:13:37.724Z,4.46
2023-03-05T18:16:10.860Z,4.41
2023-03-05T18:18:44.627Z,4.30
2023-03-05T18:21:22.303Z,4.44
2023-03-05T18:23:55.389Z,4.54
2023-03-05T18:26:28.379Z,4.43
2023-03-05T18:29:01.133Z,4.39
2023-03-05T18:31:34.744Z,4.49
2023-03-05T18:34:07.575Z,4.49
2023-03-05T18:36:40.434Z,4.46
2023-03-05T18:39:16.313Z,4.33
2023-03-05T18:41:49.799Z,4.39
2023-03-05T18:44:22.525Z,4.29
2023-03-05T18:46:55.100Z,4.30
2023-03-05T18:49:29.124Z,4.39
2023-03-05T18:52:01.862Z,4.30
2023-03-05T18:54:34.665Z,4.26
2023-03-05T18:57:07.952Z,4.31
2023-03-05T18:59:42.563Z,4.29
2023-03-05T19:02:18.362Z,4.26
2023-03-05T19:04:51.063Z,4.28
2023-03-05T19:07:25.856Z,4.27
2023-03-05T19:10:02.414Z,4.29
2023-03-05T19:12:38.455Z,4.27
2023-03-05T19:15:26.677Z,4.32
2023-03-05T19:18:00.751Z,4.33
2023-03-05T19:20:35.300Z,4.23
2023-03-05T19:23:07.092Z,4.29
2023-03-05T19:25:41.083Z,4.27
2023-03-05T19:28:14.090Z,4.21
2023-03-05T19:30:48.920Z,4.28
2023-03-05T19:33:24.173Z,4.29
2023-03-05T19:35:57.616Z,4.38
2023-03-05T19:38:30.518Z,4.32
2023-03-05T19:41:03.220Z,4.25
2023-03-05T19:43:35.853Z,4.20
2023-03-05T19:46:10.016Z,4.14
2023-03-05T19:48:46.662Z,4.01
2023-03-05T19:51:21.333Z,3.78
2023-03-05T19:53:52.589Z,3.84
2023-03-05T19:56:24.977Z,3.80
2023-03-05T19:58:57.849Z,3.92
2023-03-05T20:01:30.678Z,3.96
2023-03-05T20:04:05.737Z,3.89
2023-03-05T20:06:38.272Z,3.95
2023-03-05T20:09:11.190Z,3.98
2023-03-05T20:11:43.907Z,3.83
2023-03-05T20:14:16.702Z,3.83
2023-03-05T20:16:49.233Z,3.87
2023-03-05T20:19:22.040Z,3.79
2023-03-05T20:21:54.737Z,3.71
2023-03-05T20:24:27.522Z,3.77
2023-03-05T20:27:00.702Z,3.80
2023-03-05T20:29:33.680Z,3.74
2023-03-05T20:32:06.946Z,3.77
2023-03-05T20:34:40.078Z,3.85
2023-03-05T20:37:12.591Z,3.86
2023-03-05T20:39:45.485Z,3.77
2023-03-05T20:42:18.386Z,3.74
2023-03-05T20:44:51.001Z,3.74
2023-03-05T20:47:46.554Z,3.64
2023-03-05T20:50:19.888Z,3.59
2023-03-05T20:52:52.609Z,3.61
2023-03-05T20:55:28.833Z,3.50
2023-03-05T20:58:01.813Z,3.60
2023-03-05T21:00:35.017Z,3.63
2023-03-05T21:03:09.502Z,3.55
2023-03-05T21:05:41.260Z,3.59
2023-03-05T21:08:13.899Z,3.63
2023-03-05T21:10:47.085Z,3.61
2023-03-05T21:13:19.608Z,3.54
2023-03-05T21:15:52.591Z,3.56
2023-03-05T21:18:28.211Z,3.56
2023-03-05T21:21:00.706Z,3.52
2023-03-05T21:23:33.392Z,3.37
2023-03-05T21:26:06.552Z,3.42
2023-03-05T21:28:40.097Z,3.40
2023-03-05T21:31:16.048Z,3.28
2023-03-05T21:33:49.062Z,2.93
2023-03-05T21:36:22.200Z,3.15
2023-03-05T21:38:54.781Z,3.14
2023-03-05T21:41:27.718Z,3.09
2023-03-05T21:44:04.143Z,3.03
2023-03-05T21:46:37.594Z,3.06
2023-03-05T21:49:10.341Z,3.14
2023-03-05T21:52:11.716Z,3.06
2023-03-05T21:54:44.464Z,3.13
2023-03-05T21:57:17.095Z,3.03
2023-03-05T21:59:49.596Z,3.12
2023-03-05T22:02:23.451Z,3.22
2023-03-05T22:04:56.041Z,3.31
2023-03-05T22:07:29.356Z,3.22
2023-03-05T22:10:01.793Z,3.35
2023-03-05T22:13:12.779Z,3.38
2023-03-05T22:15:47.897Z,3.36
2023-03-05T22:18:21.841Z,3.37
2023-03-05T22:20:54.942Z,3.37
2023-03-05T22:23:30.738Z,3.35
2023-03-05T22:26:05.474Z,3.36
2023-03-05T22:28:39.078Z,3.34
2023-03-05T22:31:12.114Z,3.35
2023-03-05T22:33:44.640Z,3.31
2023-03-05T22:36:18.310Z,3.32
2023-03-05T22:38:51.902Z,3.33
2023-03-05T22:41:24.786Z,3.21
2023-03-05T22:43:57.307Z,3.20
2023-03-05T22:46:29.693Z,3.22
2023-03-05T22:49:02.112Z,3.20
2023-03-05T22:51:34.551Z,3.20
2023-03-05T22:54:07.326Z,3.19
2023-03-05T22:56:39.822Z,3.16
2023-03-05T22:59:12.663Z,3.05
2023-03-05T23:01:45.244Z,3.09
2023-03-05T23:04:49.672Z,3.01
2023-03-05T23:07:23.696Z,3.08
2023-03-05T23:09:59.423Z,3.03
2023-03-05T23:12:35.295Z,2.99
2023-03-05T23:15:11.656Z,2.88
2023-03-05T23:17:44.369Z,2.83
2023-03-05T23:20:17.932Z,2.90
2023-03-05T23:22:53.025Z,2.89
2023-03-05T23:25:28.019Z,2.80
2023-03-05T23:28:01.270Z,2.87
2023-03-05T23:30:37.307Z,2.85
2023-03-05T23:33:14.787Z,2.84
2023-03-05T23:35:54.509Z,2.83
2023-03-05T23:38:28.702Z,2.81
2023-03-05T23:41:03.548Z,2.77
2023-03-05T23:43:34.282Z,2.57
2023-03-05T23:46:13.279Z,2.73
2023-03-05T23:48:45.747Z,2.70
2023-03-05T23:51:19.332Z,2.66
2023-03-05T23:53:51.844Z,2.64
2023-03-05T23:56:24.332Z,2.63
2023-03-05T23:59:00.549Z,2.61
